Arthur, Nebraska
Current Conditions -  °F | °C
As of 7:35 PM on Sunday 23 Nov 2014 (Local Time) from KOGA Reporting Station
Clear Clear  
Wind Chill: 25°   Ceiling: Unl
Heat Index: 35°   Visibility: 10mi
Dew Point: 20°   Wind: 18mph
Humidity: 54%   Direction: 310°NW
Pressure: 29.78"   Gusts: 26mph
Location:  41.57°N, 101.69°W
Report Text: KOGA 240235Z AUTO 31016G23KT 10SM CLR 02/M07 A2978 RMK AO2 T00191066
Loading
Personal Weather Stations






























Interactive Weather Map New forecast layout! Learn more

10-Day Weather Forecast

Advertisements
Track Severe Weather on mobile